createdAt,value
2018-02-06T00:00:22.079Z,-4.00
2018-02-06T00:02:49.238Z,-4.00
2018-02-06T00:05:16.409Z,-4.00
2018-02-06T00:07:42.795Z,-4.00
2018-02-06T00:10:09.211Z,-4.00
2018-02-06T00:12:35.632Z,-4.10
2018-02-06T00:15:02.063Z,-4.00
2018-02-06T00:17:28.451Z,-4.10
2018-02-06T00:19:55.594Z,-3.90
2018-02-06T00:22:22.777Z,-3.90
2018-02-06T00:24:49.194Z,-4.00
2018-02-06T00:27:16.374Z,-3.80
2018-02-06T00:29:42.775Z,-3.90
2018-02-06T00:32:09.929Z,-3.50
2018-02-06T00:34:37.050Z,-3.30
2018-02-06T00:37:03.453Z,-3.40
2018-02-06T00:39:29.835Z,-3.30
2018-02-06T00:41:57.023Z,-3.20
2018-02-06T00:44:23.428Z,-3.30
2018-02-06T00:46:50.545Z,-3.20
2018-02-06T00:49:16.967Z,-3.30
2018-02-06T00:51:43.354Z,-3.20
2018-02-06T00:54:10.518Z,-3.10
2018-02-06T00:56:36.916Z,-3.20
2018-02-06T00:59:03.367Z,-3.10
2018-02-06T01:01:30.541Z,-3.10
2018-02-06T01:03:56.946Z,-3.10
2018-02-06T01:06:23.360Z,-3.10
2018-02-06T01:08:49.781Z,-3.10
2018-02-06T01:11:16.202Z,-3.00
2018-02-06T01:13:42.593Z,-3.00
2018-02-06T01:16:09.742Z,-3.00
2018-02-06T01:18:36.897Z,-3.00
2018-02-06T01:21:04.031Z,-3.00
2018-02-06T01:23:30.478Z,-3.10
2018-02-06T01:25:57.630Z,-3.00
2018-02-06T01:28:24.786Z,-3.00
2018-02-06T01:30:51.910Z,-3.00
2018-02-06T01:33:18.344Z,-3.00
2018-02-06T01:35:44.758Z,-3.00
2018-02-06T01:38:11.196Z,-3.00
2018-02-06T01:40:37.654Z,-3.00
2018-02-06T01:43:04.069Z,-3.00
2018-02-06T01:45:30.493Z,-3.00
2018-02-06T01:47:56.883Z,-3.00
2018-02-06T01:50:24.057Z,-3.00
2018-02-06T01:52:50.516Z,-3.10
2018-02-06T01:55:16.910Z,-3.00
2018-02-06T01:57:44.064Z,-3.00
2018-02-06T02:00:10.450Z,-3.00
2018-02-06T02:02:36.876Z,-3.00
2018-02-06T02:05:03.268Z,-3.00
2018-02-06T02:07:29.679Z,-3.00
2018-02-06T02:09:56.824Z,-3.00
2018-02-06T02:12:23.988Z,-3.00
2018-02-06T02:14:51.149Z,-3.00
2018-02-06T02:17:18.280Z,-3.00
2018-02-06T02:19:44.723Z,-3.00
2018-02-06T02:22:11.853Z,-2.90
2018-02-06T02:24:38.270Z,-3.00
2018-02-06T02:27:04.688Z,-3.00
2018-02-06T02:29:31.098Z,-3.00
2018-02-06T02:31:57.507Z,-3.00
2018-02-06T02:34:24.634Z,-2.90
2018-02-06T02:36:51.062Z,-3.00
2018-02-06T02:39:17.455Z,-2.90
2018-02-06T04:39:34.239Z,-2.60
2018-02-06T04:42:00.623Z,-2.70
2018-02-06T04:44:27.052Z,-2.60
2018-02-06T04:46:53.480Z,-2.60
2018-02-06T04:49:19.936Z,-2.60
2018-02-06T04:51:47.105Z,-2.60
2018-02-06T04:54:13.501Z,-2.70
2018-02-06T04:56:39.957Z,-2.60
2018-02-06T04:59:07.086Z,-2.60
2018-02-06T05:01:33.535Z,-2.60
2018-02-06T05:03:59.922Z,-2.60
2018-02-06T05:06:26.332Z,-2.60
2018-02-06T05:08:52.802Z,-2.60
2018-02-06T05:11:19.199Z,-2.60
2018-02-06T05:13:45.634Z,-2.60
2018-02-06T05:16:12.041Z,-2.60
2018-02-06T05:18:38.466Z,-2.60
2018-02-06T05:21:04.885Z,-2.60
2018-02-06T05:23:31.358Z,-2.60
2018-02-06T05:25:58.532Z,-2.60
2018-02-06T05:28:24.943Z,-2.70
2018-02-06T05:30:52.090Z,-2.60
2018-02-06T05:33:19.213Z,-2.60
2018-02-06T05:35:45.633Z,-2.70
2018-02-06T05:38:12.067Z,-2.60
2018-02-06T05:40:38.453Z,-2.60
2018-02-06T05:43:05.605Z,-2.60
2018-02-06T05:45:32.811Z,-2.60
2018-02-06T05:47:59.309Z,-2.70
2018-02-06T05:50:25.726Z,-2.60
2018-02-06T05:52:52.876Z,-2.70
2018-02-06T05:55:20.056Z,-2.70
2018-02-06T05:57:46.441Z,-2.80
2018-02-06T06:00:12.871Z,-2.70
2018-02-06T06:02:39.262Z,-2.80
2018-02-06T06:05:05.676Z,-2.80
2018-02-06T06:07:32.063Z,-2.80
2018-02-06T06:09:58.474Z,-2.80
2018-02-06T06:12:24.890Z,-2.80
2018-02-06T06:14:51.341Z,-2.80
2018-02-06T06:17:17.759Z,-2.80
2018-02-06T06:19:44.166Z,-2.80
2018-02-06T06:22:11.328Z,-2.80
2018-02-06T06:24:37.718Z,-2.80
2018-02-06T06:27:04.140Z,-2.80
2018-02-06T06:29:30.569Z,-2.80
2018-02-06T06:31:56.962Z,-2.80
2018-02-06T06:34:24.116Z,-2.80
2018-02-06T06:36:51.253Z,-2.80
2018-02-06T06:39:18.422Z,-2.80
2018-02-06T06:41:44.822Z,-2.80
2018-02-06T06:44:11.229Z,-2.80
2018-02-06T06:46:37.661Z,-2.80
2018-02-06T06:49:04.068Z,-2.80
2018-02-06T06:51:30.530Z,-2.70
2018-02-06T06:53:56.921Z,-2.80
2018-02-06T06:56:24.089Z,-2.70
2018-02-06T06:58:50.486Z,-2.80
2018-02-06T07:01:16.897Z,-2.70
2018-02-06T07:03:43.350Z,-2.70
2018-02-06T07:06:09.730Z,-2.70
2018-02-06T07:08:36.158Z,-2.60
2018-02-06T07:11:02.547Z,-2.60
2018-02-06T07:13:28.978Z,-2.60
2018-02-06T07:15:55.381Z,-2.60
2018-02-06T07:18:21.801Z,-2.50
2018-02-06T07:20:48.228Z,-2.50
2018-02-06T07:23:14.611Z,-2.30
2018-02-06T07:25:41.025Z,-2.30
2018-02-06T07:28:07.458Z,-2.30
2018-02-06T07:30:34.618Z,-2.20
2018-02-06T07:33:01.041Z,-2.30
2018-02-06T07:35:27.465Z,-2.20
2018-02-06T07:37:53.903Z,-2.20
2018-02-06T07:40:20.287Z,-2.10
2018-02-06T07:42:46.717Z,-2.10
2018-02-06T07:45:13.101Z,-2.10
2018-02-06T07:47:39.550Z,-2.10
2018-02-06T07:50:05.979Z,-2.20
2018-02-06T07:52:32.397Z,-2.10
2018-02-06T07:54:58.826Z,-2.00
2018-02-06T07:57:25.215Z,-2.00
2018-02-06T07:59:51.642Z,-2.00
2018-02-06T08:02:18.038Z,-1.90
2018-02-06T08:04:44.462Z,-1.80
2018-02-06T08:07:10.870Z,-1.70
2018-02-06T08:09:38.053Z,-1.50
2018-02-06T08:12:04.442Z,-1.50
2018-02-06T08:14:30.863Z,-1.40
2018-02-06T08:16:57.268Z,-1.40
2018-02-06T08:19:23.729Z,-1.40
2018-02-06T08:21:50.145Z,-1.30
2018-02-06T08:24:16.538Z,-1.30
2018-02-06T08:26:43.694Z,-1.30
2018-02-06T08:29:10.826Z,-1.20
2018-02-06T08:31:37.237Z,-1.20
2018-02-06T08:34:03.642Z,-1.10
2018-02-06T08:36:30.115Z,-1.20
2018-02-06T08:38:56.585Z,-1.00
2018-02-06T08:41:23.735Z,-1.10
2018-02-06T08:43:50.906Z,-1.10
2018-02-06T08:46:17.301Z,-1.10
2018-02-06T08:48:43.712Z,-0.90
2018-02-06T08:51:10.202Z,-0.90
2018-02-06T08:53:36.614Z,-0.80
2018-02-06T08:56:03.743Z,-0.60
2018-02-06T08:58:30.150Z,-0.70
2018-02-06T09:00:56.545Z,-0.70
2018-02-06T09:03:23.693Z,-0.60
2018-02-06T09:05:50.832Z,-0.70
2018-02-06T09:08:17.988Z,-0.50
2018-02-06T09:10:44.976Z,-0.30
2018-02-06T09:13:11.241Z,-0.40
2018-02-06T09:15:37.470Z,-0.10
2018-02-06T09:18:03.680Z,0.20
2018-02-06T09:20:29.952Z,-0.10
2018-02-06T09:22:56.160Z,-0.20
2018-02-06T09:25:22.373Z,-0.10
2018-02-06T09:27:48.610Z,-0.30
2018-02-06T09:30:14.860Z,-0.10
2018-02-06T09:32:41.145Z,0.00
2018-02-06T09:35:07.393Z,0.00
2018-02-06T09:37:33.646Z,-0.10
2018-02-06T09:39:59.894Z,-0.10
2018-02-06T09:42:26.991Z,0.20
2018-02-06T09:44:53.408Z,0.20
2018-02-06T09:47:19.789Z,0.40
2018-02-06T09:49:46.019Z,0.40
2018-02-06T09:52:12.317Z,0.40
2018-02-06T09:54:38.534Z,0.30
2018-02-06T09:57:04.809Z,0.10
2018-02-06T09:59:31.025Z,0.00
2018-02-06T10:01:57.260Z,0.00
2018-02-06T10:04:23.496Z,0.00
2018-02-06T10:06:49.729Z,-0.10
2018-02-06T10:09:15.965Z,-0.30
2018-02-06T10:11:42.178Z,-0.40
2018-02-06T10:14:08.417Z,-0.40
2018-02-06T10:16:34.641Z,-0.50
2018-02-06T10:19:00.876Z,-0.30
2018-02-06T10:21:27.080Z,-0.20
2018-02-06T10:23:53.341Z,-0.20
2018-02-06T10:26:19.617Z,-0.20
2018-02-06T10:28:45.829Z,-0.20
2018-02-06T10:31:12.796Z,0.00
2018-02-06T10:33:39.002Z,-0.10
2018-02-06T10:36:05.976Z,0.00
2018-02-06T10:38:32.181Z,-0.10
2018-02-06T10:40:59.152Z,0.20
2018-02-06T10:43:25.403Z,0.10
2018-02-06T10:45:51.623Z,0.30
2018-02-06T10:48:17.864Z,0.40
2018-02-06T10:50:44.107Z,0.60
2018-02-06T10:53:10.373Z,0.60
2018-02-06T10:55:36.577Z,0.60
2018-02-06T10:58:02.818Z,0.40
2018-02-06T11:00:29.195Z,0.30
2018-02-06T11:02:55.412Z,0.40
2018-02-06T11:05:22.388Z,0.20
2018-02-06T11:07:48.595Z,0.10
2018-02-06T11:10:14.825Z,0.20
2018-02-06T11:12:41.024Z,0.30
2018-02-06T11:15:08.020Z,0.40
2018-02-06T11:17:34.299Z,0.40
2018-02-06T11:20:00.558Z,0.40
2018-02-06T11:22:27.532Z,0.60
2018-02-06T11:24:53.737Z,0.50
2018-02-06T11:27:19.968Z,0.50
2018-02-06T11:29:46.174Z,0.50
2018-02-06T11:32:12.413Z,0.40
2018-02-06T11:34:39.405Z,0.40
2018-02-06T11:37:05.604Z,0.40
2018-02-06T11:39:31.860Z,0.30
2018-02-06T11:41:58.097Z,0.50
2018-02-06T11:44:24.363Z,0.60
2018-02-06T11:46:50.615Z,0.80
2018-02-06T11:49:17.580Z,0.80
2018-02-06T11:51:43.817Z,0.80
2018-02-06T11:54:10.024Z,0.80
2018-02-06T11:56:37.001Z,0.80
2018-02-06T11:59:03.223Z,0.70
2018-02-06T12:01:29.472Z,0.70
2018-02-06T12:03:55.741Z,0.90
2018-02-06T12:06:21.979Z,0.90
2018-02-06T12:08:48.958Z,1.00
2018-02-06T12:11:15.173Z,0.90
2018-02-06T12:13:42.152Z,0.80
2018-02-06T12:16:08.388Z,0.80
2018-02-06T12:18:34.632Z,0.80
2018-02-06T12:21:00.841Z,0.70
2018-02-06T12:23:27.084Z,0.80
2018-02-06T12:25:53.319Z,0.80
2018-02-06T12:28:19.525Z,0.80
2018-02-06T12:30:45.757Z,0.80
2018-02-06T12:33:11.976Z,0.80
2018-02-06T12:35:38.216Z,0.80
2018-02-06T12:38:04.424Z,0.70
2018-02-06T12:40:30.656Z,0.80
2018-02-06T12:42:56.868Z,0.80
2018-02-06T12:45:23.865Z,0.90
2018-02-06T12:47:50.864Z,1.10
2018-02-06T12:50:17.866Z,1.20
2018-02-06T12:52:44.095Z,1.20
2018-02-06T12:55:10.306Z,1.30
2018-02-06T12:57:36.568Z,1.30
2018-02-06T13:00:03.041Z,1.40
2018-02-06T13:02:30.198Z,1.20
2018-02-06T13:04:56.608Z,1.10
2018-02-06T13:07:22.989Z,1.20
2018-02-06T13:09:49.417Z,1.20
2018-02-06T13:12:15.814Z,1.30
2018-02-06T13:14:43.038Z,1.30
2018-02-06T13:17:09.530Z,1.30
2018-02-06T13:19:35.974Z,1.40
2018-02-06T13:22:02.452Z,1.40
2018-02-06T13:24:28.845Z,1.30
2018-02-06T13:26:55.270Z,1.30
2018-02-06T13:29:21.680Z,1.40
2018-02-06T13:31:48.837Z,1.40
2018-02-06T13:34:16.034Z,1.50
2018-02-06T13:36:42.558Z,1.40
2018-02-06T13:39:08.994Z,1.50
2018-02-06T13:41:35.392Z,1.60
2018-02-06T13:44:02.694Z,1.70
2018-02-06T13:46:29.190Z,1.70
2018-02-06T13:48:55.646Z,1.80
2018-02-06T13:51:22.029Z,1.90
2018-02-06T13:53:48.540Z,1.90
2018-02-06T13:56:15.002Z,1.90
2018-02-06T13:58:41.431Z,1.80
2018-02-06T14:01:07.869Z,1.80
2018-02-06T14:03:34.330Z,1.70
2018-02-06T14:06:01.546Z,1.60
2018-02-06T14:08:27.996Z,1.60
2018-02-06T14:10:55.193Z,1.60
2018-02-06T14:15:54.594Z,1.70
2018-02-06T14:18:21.777Z,1.70
2018-02-06T14:20:48.234Z,1.70
2018-02-06T14:23:14.674Z,1.80
2018-02-06T14:25:41.069Z,1.90
2018-02-06T14:28:07.488Z,1.90
2018-02-06T14:30:34.672Z,1.90
2018-02-06T14:33:01.098Z,1.80
2018-02-06T14:35:27.526Z,1.80
2018-02-06T14:37:54.030Z,1.80
2018-02-06T14:40:21.190Z,1.70
2018-02-06T14:42:48.321Z,1.70
2018-02-06T14:45:14.790Z,1.70
2018-02-06T14:47:41.202Z,1.80
2018-02-06T14:50:08.519Z,1.80
2018-02-06T14:52:35.027Z,1.70
2018-02-06T14:55:01.434Z,1.70
2018-02-06T14:57:28.589Z,1.80
2018-02-06T14:59:55.783Z,1.70
2018-02-06T15:02:22.201Z,1.60
2018-02-06T15:04:48.624Z,1.70
2018-02-06T15:07:15.019Z,1.70
2018-02-06T15:09:41.456Z,1.60
2018-02-06T15:12:07.840Z,1.50
2018-02-06T15:14:34.258Z,1.50
2018-02-06T15:17:00.657Z,1.40
2018-02-06T15:19:27.072Z,1.40
2018-02-06T15:21:53.460Z,1.30
2018-02-06T15:24:19.885Z,1.20
2018-02-06T15:26:47.050Z,1.10
2018-02-06T15:29:13.470Z,1.00
2018-02-06T15:31:40.637Z,0.80
2018-02-06T15:34:07.032Z,0.80
2018-02-06T15:36:33.474Z,0.80
2018-02-06T15:38:59.865Z,0.80
2018-02-06T15:41:26.281Z,0.70
2018-02-06T15:43:52.694Z,0.70
2018-02-06T15:46:19.894Z,0.60
2018-02-06T15:48:46.316Z,0.50
2018-02-06T15:51:12.702Z,0.60
2018-02-06T15:53:39.695Z,0.40
2018-02-06T15:56:05.916Z,0.40
2018-02-06T15:58:32.172Z,0.30
2018-02-06T16:01:00.288Z,0.30
2018-02-06T16:03:26.489Z,0.10
2018-02-06T16:05:52.729Z,0.00
2018-02-06T16:08:18.936Z,0.00
2018-02-06T16:10:45.160Z,-0.10
2018-02-06T16:13:11.363Z,-0.10
2018-02-06T16:15:37.621Z,-0.20
2018-02-06T16:18:03.870Z,-0.30
2018-02-06T16:20:30.079Z,-0.30
2018-02-06T16:22:56.393Z,-0.40
2018-02-06T16:25:22.616Z,-0.40
2018-02-06T16:27:48.841Z,-0.40
2018-02-06T16:30:15.093Z,-0.40
2018-02-06T16:32:41.328Z,-0.50
2018-02-06T16:35:07.561Z,-0.60
2018-02-06T16:37:34.005Z,-0.60
2018-02-06T16:40:00.264Z,-0.60
2018-02-06T16:42:26.464Z,-0.70
2018-02-06T16:44:52.721Z,-0.70
2018-02-06T16:47:18.977Z,-0.80
2018-02-06T16:49:45.949Z,-0.90
2018-02-06T16:52:12.183Z,-1.00
2018-02-06T16:54:38.521Z,-0.90
2018-02-06T16:57:04.740Z,-0.90
2018-02-06T16:59:30.975Z,-0.90
2018-02-06T17:01:57.226Z,-0.90
2018-02-06T17:04:23.454Z,-1.00
2018-02-06T17:06:49.840Z,-1.00
2018-02-06T17:09:23.741Z,-1.10
2018-02-06T17:11:50.796Z,-1.00
2018-02-06T17:14:17.806Z,-1.10
2018-02-06T17:16:44.042Z,-1.10
2018-02-06T17:19:10.290Z,-1.20
2018-02-06T17:21:37.253Z,-1.40
2018-02-06T17:24:04.232Z,-1.60
2018-02-06T17:26:30.481Z,-1.70
2018-02-06T17:28:56.708Z,-1.70
2018-02-06T17:31:23.006Z,-1.70
2018-02-06T17:33:49.945Z,-1.60
2018-02-06T17:36:16.183Z,-1.70
2018-02-06T17:38:42.402Z,-1.60
2018-02-06T17:41:09.383Z,-1.50
2018-02-06T17:43:35.609Z,-1.50
2018-02-06T17:46:01.842Z,-1.60
2018-02-06T17:48:28.105Z,-1.50
2018-02-06T17:50:54.375Z,-1.60
2018-02-06T17:53:20.718Z,-1.60
2018-02-06T17:55:46.941Z,-1.60
2018-02-06T17:58:13.187Z,-1.60
2018-02-06T18:00:39.440Z,-1.70
2018-02-06T18:03:05.650Z,-1.80
2018-02-06T18:05:31.897Z,-1.70
2018-02-06T18:07:58.161Z,-1.80
2018-02-06T18:10:25.138Z,-2.00
2018-02-06T18:12:51.413Z,-2.00
2018-02-06T18:15:17.621Z,-1.90
2018-02-06T18:17:43.849Z,-1.90
2018-02-06T18:20:10.081Z,-1.90
2018-02-06T18:22:36.467Z,-1.90
2018-02-06T18:25:03.455Z,-2.00
2018-02-06T18:27:29.701Z,-2.00
2018-02-06T18:29:55.949Z,-1.90
2018-02-06T18:32:22.219Z,-1.90
2018-02-06T18:34:49.216Z,-1.90
2018-02-06T18:37:15.521Z,-2.00
2018-02-06T18:39:41.740Z,-2.00
2018-02-06T18:42:08.834Z,-2.10
2018-02-06T18:44:35.046Z,-2.10
2018-02-06T18:47:01.333Z,-2.10
2018-02-06T18:49:28.420Z,-2.00
2018-02-06T18:51:54.730Z,-2.10
2018-02-06T18:54:21.013Z,-2.20
2018-02-06T18:56:47.288Z,-2.00
2018-02-06T18:59:13.525Z,-2.10
2018-02-06T19:01:39.765Z,-2.10
2018-02-06T19:04:05.992Z,-2.20
2018-02-06T19:06:32.237Z,-2.20
2018-02-06T19:08:58.475Z,-2.20
2018-02-06T19:11:24.882Z,-2.30
2018-02-06T19:13:51.181Z,-2.20
2018-02-06T19:16:17.409Z,-2.20
2018-02-06T19:18:43.649Z,-2.30
2018-02-06T19:21:10.611Z,-2.40
2018-02-06T19:23:36.894Z,-2.50
2018-02-06T19:26:03.122Z,-2.40
2018-02-06T19:28:29.356Z,-2.30
2018-02-06T19:30:55.602Z,-2.40
2018-02-06T19:33:21.817Z,-2.40
2018-02-06T19:35:48.068Z,-2.50
2018-02-06T19:38:15.052Z,-2.40
2018-02-06T19:40:41.349Z,-2.50
2018-02-06T19:43:07.647Z,-2.50
2018-02-06T19:45:33.884Z,-2.50
2018-02-06T19:48:00.145Z,-2.50
2018-02-06T19:50:27.185Z,-2.40
2018-02-06T19:52:53.538Z,-2.40
2018-02-06T19:55:20.573Z,-2.60
2018-02-06T19:57:47.647Z,-2.60
2018-02-06T20:00:13.916Z,-2.60
2018-02-06T20:02:40.137Z,-2.60
2018-02-06T20:05:06.493Z,-2.60
2018-02-06T20:07:32.746Z,-2.60
2018-02-06T20:09:59.730Z,-2.50
2018-02-06T20:12:25.969Z,-2.60
2018-02-06T20:14:52.289Z,-2.50
2018-02-06T20:17:18.448Z,-2.50
2018-02-06T20:19:44.669Z,-2.50
2018-02-06T20:22:10.926Z,-2.50
2018-02-06T20:24:37.162Z,-2.50
2018-02-06T20:27:03.419Z,-2.60
2018-02-06T20:29:30.409Z,-2.70
2018-02-06T20:31:56.639Z,-2.70
2018-02-06T20:34:22.885Z,-2.70
2018-02-06T20:36:49.109Z,-2.70
2018-02-06T20:39:15.354Z,-2.80
2018-02-06T20:41:41.570Z,-2.90
2018-02-06T20:44:07.805Z,-2.80
2018-02-06T20:46:34.062Z,-2.80
2018-02-06T20:49:01.037Z,-2.90
2018-02-06T20:51:27.277Z,-3.00
2018-02-06T20:53:53.543Z,-3.00
2018-02-06T20:56:19.792Z,-3.00
2018-02-06T20:58:46.052Z,-3.00
2018-02-06T21:01:12.329Z,-3.10
2018-02-06T21:03:38.551Z,-3.10
2018-02-06T21:06:04.794Z,-3.10
2018-02-06T21:08:31.037Z,-3.10
2018-02-06T21:10:57.249Z,-3.20
2018-02-06T21:13:23.528Z,-3.20
2018-02-06T21:15:50.514Z,-3.20
2018-02-06T21:18:16.752Z,-3.30
2018-02-06T21:20:43.036Z,-3.20
2018-02-06T21:23:10.070Z,-3.30
2018-02-06T21:25:36.323Z,-3.30
2018-02-06T21:28:02.539Z,-3.30
2018-02-06T21:30:29.526Z,-3.10
2018-02-06T21:32:55.757Z,-3.20
2018-02-06T21:35:21.990Z,-3.10
2018-02-06T21:37:48.242Z,-3.10
2018-02-06T21:40:14.448Z,-3.20
2018-02-06T21:42:40.717Z,-3.30
2018-02-06T21:45:06.961Z,-3.40
2018-02-06T21:47:33.991Z,-3.40
2018-02-06T21:50:00.225Z,-3.40
2018-02-06T21:52:26.436Z,-3.40
2018-02-06T21:54:52.690Z,-3.50
2018-02-06T21:57:18.901Z,-3.50
2018-02-06T21:59:45.210Z,-3.60
2018-02-06T22:02:11.432Z,-3.70
2018-02-06T22:04:37.685Z,-3.70
2018-02-06T22:07:03.899Z,-3.70
2018-02-06T22:09:30.142Z,-3.70
2018-02-06T22:11:56.389Z,-3.60
2018-02-06T22:14:22.622Z,-3.60
2018-02-06T22:16:48.876Z,-3.60
2018-02-06T22:19:15.828Z,-3.60
2018-02-06T22:21:42.825Z,-3.70
2018-02-06T22:24:09.048Z,-3.80
2018-02-06T22:26:35.302Z,-3.80
2018-02-06T22:29:01.539Z,-4.00
2018-02-06T22:31:27.761Z,-4.00
2018-02-06T22:33:54.034Z,-3.90
2018-02-06T22:36:20.257Z,-3.90
2018-02-06T22:38:47.239Z,-4.10
2018-02-06T22:41:13.668Z,-4.10
2018-02-06T22:43:40.135Z,-4.10
2018-02-06T22:46:06.541Z,-4.20
2018-02-06T22:48:32.930Z,-4.40
2018-02-06T22:51:00.180Z,-4.50
2018-02-06T22:53:26.575Z,-4.60
2018-02-06T22:55:52.992Z,-4.50
2018-02-06T22:58:19.402Z,-4.50
2018-02-06T23:00:45.837Z,-4.40
2018-02-06T23:03:12.278Z,-4.20
2018-02-06T23:05:38.710Z,-4.20
2018-02-06T23:08:05.108Z,-4.00
2018-02-06T23:10:31.513Z,-4.00
2018-02-06T23:12:57.938Z,-4.00
2018-02-06T23:15:24.360Z,-3.90
2018-02-06T23:17:50.778Z,-4.00
2018-02-06T23:20:17.192Z,-4.20
2018-02-06T23:22:44.368Z,-4.20
2018-02-06T23:25:10.742Z,-4.20
2018-02-06T23:27:37.146Z,-4.20
2018-02-06T23:30:03.572Z,-4.20
2018-02-06T23:32:29.996Z,-4.10
2018-02-06T23:34:56.506Z,-4.10
2018-02-06T23:37:22.877Z,-4.00
2018-02-06T23:39:49.266Z,-4.00
2018-02-06T23:42:15.661Z,-4.00
2018-02-06T23:44:42.096Z,-4.10
2018-02-06T23:47:08.470Z,-4.10
2018-02-06T23:49:34.920Z,-4.20
2018-02-06T23:52:02.044Z,-4.20
2018-02-06T23:54:28.496Z,-4.20
2018-02-06T23:56:54.905Z,-4.10
2018-02-06T23:59:21.314Z,-4.10
